Overseas Houston — WWAA — position and weather

sailwx.info

Track history (hours):
 
Tides and Currents Weather Stations Pressure Air Temp Water Temp Dewpoint Dewpoint Depression Visibility Wind Speed Wind Dir Waves Ship Positions

Overseas Houston

Owner: ASC Leasing I, Inc., Philadelphia, PA. More information available from US FCC via Universal Licensing System and Coast Guard Vessel Documentation Center.

Last reported at 2015-Mar-28 04:27 UTC. Time now 2015-Mar-28 18:49 UTC.
Position N 29°55' W 089°57'.

Type: Tanker. MMSI: 367109000.

Date/timePositionNaut miles runAvg speedWind from/ knotsBaromVisibWave heightAir tempDewpointWater temp
2015-Mar-28 04:27N 29°55' W 089°57'11 9.8
2015-Mar-28 03:20N 29°57' W 090°10'3 0.1
2015-Mar-26 04:31N 29°56' W 090°13'6 6.5
2015-Mar-26 03:33N 29°55' W 090°05'7 6.4
2015-Mar-26 02:30N 29°55' W 089°58'4 4.0
2015-Mar-26 01:29N 29°51' W 089°59'  
2015-Mar-23 20:17N 25°28' W 080°00'7 9.8
2015-Mar-23 19:33N 25°36' W 080°00'9 9.3
2015-Mar-23 18:33N 25°45' W 080°00'9 9.5
2015-Mar-23 17:33N 25°54' W 080°01'10 9.5
2015-Mar-23 16:33N 26°04' W 080°03'4 4.2
2015-Mar-23 15:33N 26°06' W 080°07'0 0.0
2015-Mar-23 14:33N 26°06' W 080°07'0 0.0
2015-Mar-23 13:33N 26°06' W 080°07'0 0.0
2015-Mar-23 12:33N 26°06' W 080°07'0 0.0
2015-Mar-23 11:33N 26°06' W 080°07'0 0.0
2015-Mar-23 10:33N 26°06' W 080°07'0 0.0
2015-Mar-23 09:33N 26°06' W 080°07'0 0.0
2015-Mar-23 08:33N 26°06' W 080°07'0 0.0
2015-Mar-23 07:33N 26°06' W 080°07'0 0.0
2015-Mar-23 06:33N 26°06' W 080°07'0 0.0
2015-Mar-23 05:33N 26°06' W 080°07'0 0.0
2015-Mar-23 04:33N 26°06' W 080°07'0 0.0
2015-Mar-23 03:33N 26°06' W 080°07'0 0.0
2015-Mar-23 02:33N 26°06' W 080°07'0 0.0
2015-Mar-23 01:33N 26°06' W 080°07'0 0.0
2015-Mar-23 00:33N 26°06' W 080°07'0 0.0
2015-Mar-22 23:33N 26°06' W 080°07'0 0.0
2015-Mar-22 22:33N 26°06' W 080°07'0 0.0
2015-Mar-22 21:33N 26°06' W 080°07'0 0.0
2015-Mar-22 20:33N 26°06' W 080°07'0 0.0
2015-Mar-22 19:33N 26°06' W 080°07'0 0.0
2015-Mar-22 18:33N 26°06' W 080°07'0 0.0
2015-Mar-22 17:33N 26°06' W 080°07'0 0.0
2015-Mar-22 16:33N 26°06' W 080°07'0 0.0
2015-Mar-22 15:33N 26°06' W 080°07'0 0.0
2015-Mar-22 14:33N 26°06' W 080°07'0 0.0
2015-Mar-22 13:33N 26°06' W 080°07'0 0.0
2015-Mar-22 12:33N 26°06' W 080°07'0 0.0
2015-Mar-22 11:33N 26°06' W 080°07'0 0.0
2015-Mar-22 10:33N 26°06' W 080°07'0 0.0
2015-Mar-22 09:33N 26°06' W 080°07'0 0.0
2015-Mar-22 08:33N 26°06' W 080°07'0 0.0
2015-Mar-22 07:33N 26°06' W 080°07'0 0.0
2015-Mar-22 06:33N 26°06' W 080°07'0 0.0
2015-Mar-22 05:33N 26°06' W 080°07'0 0.0
2015-Mar-22 04:33N 26°06' W 080°07'0 0.0
2015-Mar-22 03:33N 26°06' W 080°07'0 0.0
2015-Mar-22 02:33N 26°06' W 080°07'0 0.0
2015-Mar-22 01:33N 26°06' W 080°07'0 0.0
2015-Mar-22 00:33N 26°06' W 080°07'0 0.0
2015-Mar-21 23:33N 26°06' W 080°07'0 0.0
2015-Mar-21 22:33N 26°06' W 080°07'0 0.0
2015-Mar-21 21:33N 26°06' W 080°07'0 0.0
2015-Mar-21 20:33N 26°06' W 080°07'0 0.0
2015-Mar-21 19:33N 26°06' W 080°07'0 0.0
2015-Mar-21 18:33N 26°06' W 080°07'0 0.0
2015-Mar-21 17:32N 26°06' W 080°07'0 0.0
2015-Mar-21 16:33N 26°06' W 080°07'0 0.0
2015-Mar-21 15:33N 26°06' W 080°07'1 1.1
2015-Mar-21 14:33N 26°06' W 080°06'7 7.0
2015-Mar-21 13:33N 26°07' W 079°59'5 5.3
2015-Mar-21 12:33N 26°09' W 079°53'1 0.8
2015-Mar-21 11:33N 26°10' W 079°53'1 0.7
2015-Mar-21 10:33N 26°10' W 079°52'1 1.0
2015-Mar-21 09:33N 26°09' W 079°52'2 1.6
2015-Mar-21 08:33N 26°07' W 079°52'2 1.5
2015-Mar-21 07:33N 26°06' W 079°53'2 1.7
2015-Mar-21 06:33N 26°04' W 079°53'3 2.7
2015-Mar-21 05:33N 26°01' W 079°54'1212.1
2015-Mar-21 04:32N 25°49' W 079°57'1616.1
2015-Mar-21 03:33N 25°34' W 079°57'59212.1
2015-Mar-19 02:28N 29°53' W 089°58'6 6.2
2015-Mar-19 01:29N 29°58' W 090°03'  
Track history (hours):
 
Tides and Currents Weather Stations Pressure Air Temp Water Temp Dewpoint Dewpoint Depression Visibility Wind Speed Wind Dir Waves Ship Positions

Overseas Houston

Owner: ASC Leasing I, Inc., Philadelphia, PA. More information available from US FCC via Universal Licensing System and Coast Guard Vessel Documentation Center.

Last reported at 2015-Mar-28 04:27 UTC. Time now 2015-Mar-28 18:49 UTC.
Position N 29°55' W 089°57'.

Type: Tanker. MMSI: 367109000.

Date/timePositionNaut miles runAvg speedWind from/ knotsBaromVisibWave heightAir tempDewpointWater temp
2015-Mar-28 04:27N 29°55' W 089°57'11 9.8
2015-Mar-28 03:20N 29°57' W 090°10'3 0.1
2015-Mar-26 04:31N 29°56' W 090°13'6 6.5
2015-Mar-26 03:33N 29°55' W 090°05'7 6.4
2015-Mar-26 02:30N 29°55' W 089°58'4 4.0
2015-Mar-26 01:29N 29°51' W 089°59'  
2015-Mar-23 20:17N 25°28' W 080°00'7 9.8
2015-Mar-23 19:33N 25°36' W 080°00'9 9.3
2015-Mar-23 18:33N 25°45' W 080°00'9 9.5
2015-Mar-23 17:33N 25°54' W 080°01'10 9.5
2015-Mar-23 16:33N 26°04' W 080°03'4 4.2
2015-Mar-23 15:33N 26°06' W 080°07'0 0.0
2015-Mar-23 14:33N 26°06' W 080°07'0 0.0
2015-Mar-23 13:33N 26°06' W 080°07'0 0.0
2015-Mar-23 12:33N 26°06' W 080°07'0 0.0
2015-Mar-23 11:33N 26°06' W 080°07'0 0.0
2015-Mar-23 10:33N 26°06' W 080°07'0 0.0
2015-Mar-23 09:33N 26°06' W 080°07'0 0.0
2015-Mar-23 08:33N 26°06' W 080°07'0 0.0
2015-Mar-23 07:33N 26°06' W 080°07'0 0.0
2015-Mar-23 06:33N 26°06' W 080°07'0 0.0
2015-Mar-23 05:33N 26°06' W 080°07'0 0.0
2015-Mar-23 04:33N 26°06' W 080°07'0 0.0
2015-Mar-23 03:33N 26°06' W 080°07'0 0.0
2015-Mar-23 02:33N 26°06' W 080°07'0 0.0
2015-Mar-23 01:33N 26°06' W 080°07'0 0.0
2015-Mar-23 00:33N 26°06' W 080°07'0 0.0
2015-Mar-22 23:33N 26°06' W 080°07'0 0.0
2015-Mar-22 22:33N 26°06' W 080°07'0 0.0
2015-Mar-22 21:33N 26°06' W 080°07'0 0.0
2015-Mar-22 20:33N 26°06' W 080°07'0 0.0
2015-Mar-22 19:33N 26°06' W 080°07'0 0.0
2015-Mar-22 18:33N 26°06' W 080°07'0 0.0
2015-Mar-22 17:33N 26°06' W 080°07'0 0.0
2015-Mar-22 16:33N 26°06' W 080°07'0 0.0
2015-Mar-22 15:33N 26°06' W 080°07'0 0.0
2015-Mar-22 14:33N 26°06' W 080°07'0 0.0
2015-Mar-22 13:33N 26°06' W 080°07'0 0.0
2015-Mar-22 12:33N 26°06' W 080°07'0 0.0
2015-Mar-22 11:33N 26°06' W 080°07'0 0.0
2015-Mar-22 10:33N 26°06' W 080°07'0 0.0
2015-Mar-22 09:33N 26°06' W 080°07'0 0.0
2015-Mar-22 08:33N 26°06' W 080°07'0 0.0
2015-Mar-22 07:33N 26°06' W 080°07'0 0.0
2015-Mar-22 06:33N 26°06' W 080°07'0 0.0
2015-Mar-22 05:33N 26°06' W 080°07'0 0.0
2015-Mar-22 04:33N 26°06' W 080°07'0 0.0
2015-Mar-22 03:33N 26°06' W 080°07'0 0.0
2015-Mar-22 02:33N 26°06' W 080°07'0 0.0
2015-Mar-22 01:33N 26°06' W 080°07'0 0.0
2015-Mar-22 00:33N 26°06' W 080°07'0 0.0
2015-Mar-21 23:33N 26°06' W 080°07'0 0.0
2015-Mar-21 22:33N 26°06' W 080°07'0 0.0
2015-Mar-21 21:33N 26°06' W 080°07'0 0.0
2015-Mar-21 20:33N 26°06' W 080°07'0 0.0
2015-Mar-21 19:33N 26°06' W 080°07'0 0.0
2015-Mar-21 18:33N 26°06' W 080°07'0 0.0
2015-Mar-21 17:32N 26°06' W 080°07'0 0.0
2015-Mar-21 16:33N 26°06' W 080°07'0 0.0
2015-Mar-21 15:33N 26°06' W 080°07'1 1.1
2015-Mar-21 14:33N 26°06' W 080°06'7 7.0
2015-Mar-21 13:33N 26°07' W 079°59'5 5.3
2015-Mar-21 12:33N 26°09' W 079°53'1 0.8
2015-Mar-21 11:33N 26°10' W 079°53'1 0.7
2015-Mar-21 10:33N 26°10' W 079°52'1 1.0
2015-Mar-21 09:33N 26°09' W 079°52'2 1.6
2015-Mar-21 08:33N 26°07' W 079°52'2 1.5
2015-Mar-21 07:33N 26°06' W 079°53'2 1.7
2015-Mar-21 06:33N 26°04' W 079°53'3 2.7
2015-Mar-21 05:33N 26°01' W 079°54'1212.1
2015-Mar-21 04:32N 25°49' W 079°57'1616.1
2015-Mar-21 03:33N 25°34' W 079°57'59212.1
2015-Mar-19 02:28N 29°53' W 089°58'6 6.2
2015-Mar-19 01:29N 29°58' W 090°03'  

Dump ship's entire track history